createdAt,value
2019-04-10T00:03:44.194Z,2.59
2019-04-10T00:06:32.008Z,2.59
2019-04-10T00:09:21.150Z,2.68
2019-04-10T00:12:09.499Z,2.52
2019-04-10T00:14:39.084Z,2.63
2019-04-10T00:17:07.480Z,2.69
2019-04-10T00:19:35.980Z,2.65
2019-04-10T00:22:04.363Z,2.65
2019-04-10T00:27:24.299Z,2.66
2019-04-10T00:29:52.725Z,2.68
2019-04-10T00:32:21.626Z,2.66
2019-04-10T00:34:51.860Z,2.56
2019-04-10T00:37:26.727Z,2.48
2019-04-10T00:39:50.839Z,2.44
2019-04-10T00:42:19.172Z,2.46
2019-04-10T00:44:48.063Z,2.50
2019-04-10T00:47:17.018Z,2.48
2019-04-10T00:49:46.129Z,2.54
2019-04-10T00:52:14.972Z,2.49
2019-04-10T00:54:43.515Z,2.54
2019-04-10T00:57:12.827Z,2.56
2019-04-10T00:59:42.151Z,2.56
2019-04-10T01:02:10.533Z,2.57
2019-04-10T01:04:38.943Z,2.49
2019-04-10T01:07:07.340Z,2.65
2019-04-10T01:09:35.791Z,2.70
2019-04-10T01:12:04.183Z,2.56
2019-04-10T01:14:32.593Z,2.61
2019-04-10T01:17:02.067Z,2.55
2019-04-10T01:19:30.600Z,2.46
2019-04-10T01:21:58.999Z,2.47
2019-04-10T01:24:27.941Z,2.45
2019-04-10T01:26:56.376Z,2.54
2019-04-10T01:29:25.141Z,2.53
2019-04-10T01:31:53.553Z,2.58
2019-04-10T01:34:21.955Z,2.52
2019-04-10T01:36:50.354Z,2.43
2019-04-10T01:39:20.635Z,2.26
2019-04-10T01:41:50.096Z,2.38
2019-04-10T01:44:18.503Z,2.28
2019-04-10T01:46:46.970Z,2.21
2019-04-10T01:49:15.681Z,2.21
2019-04-10T01:51:44.044Z,2.11
2019-04-10T01:54:13.061Z,2.21
2019-04-10T01:56:41.888Z,2.05
2019-04-10T01:59:10.474Z,1.91
2019-04-10T02:01:49.024Z,1.84
2019-04-10T02:04:18.403Z,1.85
2019-04-10T02:06:46.796Z,1.95
2019-04-10T02:09:15.205Z,1.89
2019-04-10T02:11:43.596Z,1.74
2019-04-10T02:14:12.162Z,1.57
2019-04-10T02:16:41.133Z,1.58
2019-04-10T02:19:10.103Z,1.35
2019-04-10T02:21:38.519Z,1.41
2019-04-10T02:24:07.072Z,1.38
2019-04-10T02:26:35.963Z,1.35
2019-04-10T02:29:04.368Z,1.58
2019-04-10T02:31:34.294Z,1.32
2019-04-10T02:34:04.780Z,1.38
2019-04-10T02:36:34.465Z,1.36
2019-04-10T02:39:15.212Z,1.37
2019-04-10T02:41:36.306Z,1.28
2019-04-10T02:44:05.076Z,1.09
2019-04-10T02:46:33.525Z,0.94
2019-04-10T02:49:03.771Z,1.03
2019-04-10T02:51:32.555Z,0.93
2019-04-10T02:54:02.375Z,0.71
2019-04-10T02:56:32.632Z,0.56
2019-04-10T02:59:02.832Z,0.64
2019-04-10T03:01:31.647Z,0.81
2019-04-10T03:04:01.303Z,0.79
2019-04-10T03:06:31.164Z,0.66
2019-04-10T03:09:14.744Z,0.62
2019-04-10T03:11:31.266Z,0.45
2019-04-10T03:14:01.369Z,0.47
2019-04-10T03:16:29.819Z,0.48
2019-04-10T03:18:58.211Z,0.47
2019-04-10T03:21:27.023Z,0.63
2019-04-10T03:23:55.981Z,0.64
2019-04-10T03:26:24.373Z,0.73
2019-04-10T03:28:53.538Z,0.78
2019-04-10T03:31:23.032Z,0.78
2019-04-10T03:33:55.351Z,0.82
2019-04-10T03:36:23.904Z,0.39
2019-04-10T03:38:58.750Z,0.42
2019-04-10T03:41:22.422Z,0.31
2019-04-10T03:43:50.819Z,0.38
2019-04-10T03:46:19.515Z,0.39
2019-04-10T03:48:47.966Z,0.52
2019-04-10T03:51:16.601Z,0.37
2019-04-10T03:53:44.940Z,0.27
2019-04-10T03:56:13.811Z,0.38
2019-04-10T03:58:42.255Z,0.33
2019-04-10T04:01:11.005Z,0.32
2019-04-10T04:03:40.481Z,0.51
2019-04-10T04:06:08.999Z,0.63
2019-04-10T04:08:37.510Z,0.54
2019-04-10T04:11:05.856Z,0.37
2019-04-10T04:13:35.452Z,0.36
2019-04-10T04:16:03.849Z,0.22
2019-04-10T04:18:33.257Z,0.32
2019-04-10T04:21:01.650Z,0.51
2019-04-10T04:23:30.024Z,0.61
2019-04-10T04:25:58.943Z,0.59
2019-04-10T04:28:27.692Z,0.48
2019-04-10T04:30:56.780Z,0.37
2019-04-10T04:33:25.280Z,0.39
2019-04-10T04:35:53.694Z,0.41
2019-04-10T04:38:22.084Z,0.42
2019-04-10T04:40:51.461Z,0.39
2019-04-10T04:43:21.705Z,0.32
2019-04-10T04:45:51.586Z,0.45
2019-04-10T04:48:20.019Z,0.56
2019-04-10T04:50:48.424Z,0.63
2019-04-10T04:53:16.816Z,0.64
2019-04-10T04:55:45.293Z,0.64
2019-04-10T04:58:13.845Z,0.61
2019-04-10T05:00:42.169Z,0.59
2019-04-10T05:03:10.574Z,0.67
2019-04-10T05:05:39.154Z,0.66
2019-04-10T05:08:08.467Z,0.82
2019-04-10T05:10:37.817Z,1.22
2019-04-10T05:13:06.212Z,1.20
2019-04-10T05:15:35.268Z,1.55
2019-04-10T05:18:04.072Z,1.81
2019-04-10T05:20:43.188Z,1.92
2019-04-10T05:23:02.574Z,2.17
2019-04-10T05:25:31.599Z,2.45
2019-04-10T05:27:59.993Z,2.82
2019-04-10T05:30:29.205Z,3.10
2019-04-10T05:32:57.774Z,3.23
2019-04-10T05:35:26.196Z,3.62
2019-04-10T05:37:54.599Z,3.63
2019-04-10T05:40:23.878Z,4.22
2019-04-10T05:42:53.269Z,4.26
2019-04-10T05:45:21.766Z,4.45
2019-04-10T05:47:50.733Z,4.45
2019-04-10T05:50:19.453Z,4.65
2019-04-10T05:52:47.937Z,4.86
2019-04-10T05:55:16.328Z,5.76
2019-04-10T05:57:44.874Z,6.25
2019-04-10T06:00:15.019Z,6.63
2019-04-10T06:02:43.870Z,7.45
2019-04-10T06:05:12.572Z,8.66
2019-04-10T06:07:41.351Z,8.80
2019-04-10T06:10:10.769Z,9.62
2019-04-10T06:12:39.273Z,9.80
2019-04-10T06:15:08.116Z,10.83
2019-04-10T06:17:36.519Z,10.71
2019-04-10T06:20:07.621Z,11.28
2019-04-10T06:22:36.897Z,10.90
2019-04-10T06:25:28.964Z,11.50
2019-04-10T06:27:58.986Z,10.76
2019-04-10T06:30:28.443Z,10.35
2019-04-10T06:33:16.098Z,11.35
2019-04-10T06:35:44.738Z,11.43
2019-04-10T06:38:34.985Z,12.25
2019-04-10T06:41:04.135Z,12.73
2019-04-10T06:43:34.005Z,12.06
2019-04-10T06:46:22.248Z,12.77
2019-04-10T06:48:52.054Z,13.18
2019-04-10T06:51:21.907Z,12.95
2019-04-10T06:54:00.100Z,11.07
2019-04-10T06:56:39.549Z,12.16
2019-04-10T06:59:28.300Z,12.63
2019-04-10T07:05:07.292Z,12.47
2019-04-10T07:07:46.612Z,12.71
2019-04-10T07:10:52.039Z,12.65
2019-04-10T07:13:14.179Z,12.73
2019-04-10T07:18:50.485Z,12.28
2019-04-10T07:21:20.123Z,11.74
2019-04-10T07:23:49.392Z,11.97
2019-04-10T07:26:41.651Z,12.13
2019-04-10T07:29:07.164Z,12.17
2019-04-10T07:31:37.777Z,12.74
2019-04-10T07:34:46.654Z,12.84
2019-04-10T07:37:18.471Z,12.89
2019-04-10T07:39:46.761Z,13.57
2019-04-10T07:45:43.338Z,12.66
2019-04-10T07:48:12.779Z,12.60
2019-04-10T07:50:44.470Z,12.80
2019-04-10T07:53:12.773Z,12.38
2019-04-10T07:55:54.741Z,12.38
2019-04-10T07:58:31.498Z,11.29
2019-04-10T08:01:00.888Z,10.90
2019-04-10T08:03:31.147Z,11.80
2019-04-10T08:09:06.712Z,11.63
2019-04-10T08:14:42.051Z,11.05
2019-04-10T08:22:33.154Z,12.88
2019-04-10T08:25:20.676Z,13.23
2019-04-10T08:27:50.072Z,13.76
2019-04-10T08:30:59.117Z,14.40
2019-04-10T08:33:28.090Z,15.23
2019-04-10T08:38:32.286Z,15.11
2019-04-10T08:41:01.379Z,13.82
2019-04-10T08:43:50.192Z,13.44
2019-04-10T08:46:19.812Z,12.96
2019-04-10T08:48:49.793Z,13.31
2019-04-10T08:51:39.448Z,13.50
2019-04-10T08:59:16.845Z,12.19
2019-04-10T09:02:04.495Z,12.53
2019-04-10T09:04:33.638Z,12.51
2019-04-10T09:07:22.236Z,12.74
2019-04-10T09:09:50.627Z,12.66
2019-04-10T09:12:38.933Z,12.19
2019-04-10T09:18:11.255Z,11.91
2019-04-10T09:20:40.571Z,11.82
2019-04-10T09:23:39.010Z,11.60
2019-04-10T09:26:18.387Z,11.32
2019-04-10T09:29:06.713Z,11.45
2019-04-10T09:31:36.164Z,11.41
2019-04-10T09:34:46.643Z,11.11
2019-04-10T09:37:34.487Z,11.46
2019-04-10T09:40:44.702Z,10.82
2019-04-10T09:43:33.874Z,10.25
2019-04-10T09:46:04.189Z,10.58
2019-04-10T09:48:52.369Z,10.60
2019-04-10T09:51:21.493Z,10.67
2019-04-10T09:53:51.152Z,10.57
2019-04-10T09:56:40.145Z,10.38
2019-04-10T09:59:35.578Z,10.78
2019-04-10T10:01:58.370Z,10.47
2019-04-10T10:04:29.131Z,10.01
2019-04-10T10:06:58.040Z,10.09
2019-04-10T10:09:45.563Z,9.86
2019-04-10T10:12:13.954Z,9.90
2019-04-10T10:14:42.377Z,10.09
2019-04-10T10:17:10.761Z,10.29
2019-04-10T10:19:39.628Z,10.38
2019-04-10T10:22:09.423Z,10.50
2019-04-10T10:24:59.378Z,10.82
2019-04-10T10:27:28.669Z,11.21
2019-04-10T10:30:17.546Z,11.21
2019-04-10T10:35:49.609Z,11.13
2019-04-10T10:38:19.334Z,11.43
2019-04-10T10:41:06.985Z,11.62
2019-04-10T10:43:36.281Z,11.37
2019-04-10T10:46:25.169Z,11.18
2019-04-10T10:51:41.064Z,10.93
2019-04-10T10:54:10.502Z,10.75
2019-04-10T10:56:39.597Z,10.92
2019-04-10T10:59:27.358Z,10.68
2019-04-10T11:01:55.997Z,10.77
2019-04-10T11:04:25.920Z,10.88
2019-04-10T11:06:59.987Z,11.13
2019-04-10T11:12:12.217Z,11.65
2019-04-10T11:15:02.249Z,11.70
2019-04-10T11:23:20.271Z,11.32
2019-04-10T11:26:08.436Z,11.35
2019-04-10T11:28:39.296Z,10.99
2019-04-10T11:31:27.404Z,10.95
2019-04-10T11:33:56.791Z,10.95
2019-04-10T11:36:26.112Z,10.96
2019-04-10T11:42:04.079Z,11.21
2019-04-10T11:45:14.415Z,11.37
2019-04-10T11:47:42.812Z,11.55
2019-04-10T11:50:53.456Z,11.84
2019-04-10T11:54:02.221Z,11.78
2019-04-10T11:56:33.767Z,11.91
2019-04-10T11:59:22.061Z,12.03
2019-04-10T12:01:56.139Z,11.91
2019-04-10T12:04:20.941Z,12.55
2019-04-10T12:07:09.777Z,13.06
2019-04-10T12:12:09.072Z,12.60
2019-04-10T12:14:57.964Z,12.37
2019-04-10T12:17:26.362Z,12.26
2019-04-10T12:26:17.876Z,11.87
2019-04-10T12:28:46.983Z,11.67
2019-04-10T12:31:34.733Z,11.98
2019-04-10T12:34:22.495Z,12.25
2019-04-10T12:37:30.819Z,12.55
2019-04-10T12:40:19.446Z,12.42
2019-04-10T12:46:02.432Z,12.55
2019-04-10T12:48:30.839Z,12.11
2019-04-10T12:51:19.350Z,11.89
2019-04-10T12:54:01.250Z,12.07
2019-04-10T12:59:05.139Z,12.88
2019-04-10T13:01:53.944Z,13.50
2019-04-10T13:07:11.379Z,14.09
2019-04-10T13:09:40.491Z,13.73
2019-04-10T13:12:29.211Z,13.02
2019-04-10T13:14:59.126Z,13.06
2019-04-10T13:17:47.636Z,12.48
2019-04-10T13:20:55.944Z,12.60
2019-04-10T13:23:24.640Z,12.88
2019-04-10T13:25:59.799Z,12.78
2019-04-10T13:28:25.534Z,12.77
2019-04-10T13:30:56.565Z,12.42
2019-04-10T13:33:24.873Z,12.39
2019-04-10T13:36:13.408Z,12.49
2019-04-10T13:38:42.757Z,12.78
2019-04-10T13:41:30.362Z,13.53
2019-04-10T13:43:59.026Z,13.84
2019-04-10T13:46:49.072Z,13.18
2019-04-10T13:49:19.895Z,12.95
2019-04-10T13:51:50.017Z,13.09
2019-04-10T13:54:38.897Z,13.11
2019-04-10T13:57:08.361Z,13.31
2019-04-10T13:59:37.306Z,13.46
2019-04-10T14:02:07.293Z,13.81
2019-04-10T14:04:35.705Z,13.82
2019-04-10T14:07:04.783Z,14.26
2019-04-10T14:09:52.645Z,13.58
2019-04-10T14:12:21.010Z,13.36
2019-04-10T14:14:49.418Z,13.07
2019-04-10T14:17:17.813Z,13.23
2019-04-10T14:22:21.790Z,13.23
2019-04-10T14:24:52.123Z,12.90
2019-04-10T14:33:44.854Z,12.73
2019-04-10T14:36:13.879Z,13.08
2019-04-10T14:39:11.920Z,13.16
2019-04-10T14:41:33.747Z,12.73
2019-04-10T14:52:05.628Z,12.54
2019-04-10T14:54:34.036Z,12.61
2019-04-10T14:57:23.065Z,12.86
2019-04-10T15:00:30.749Z,12.71
2019-04-10T15:03:18.388Z,13.12
2019-04-10T15:06:06.956Z,13.36
2019-04-10T15:08:55.620Z,12.91
2019-04-10T15:11:24.741Z,12.88
2019-04-10T15:14:13.269Z,12.87
2019-04-10T15:17:04.459Z,12.50
2019-04-10T15:19:32.205Z,12.51
2019-04-10T15:22:20.235Z,12.47
2019-04-10T15:24:49.633Z,12.09
2019-04-10T15:27:37.879Z,12.01
2019-04-10T15:30:46.626Z,12.20
2019-04-10T15:33:35.817Z,11.90
2019-04-10T15:36:04.224Z,12.20
2019-04-10T15:38:52.726Z,12.13
2019-04-10T15:41:41.333Z,12.15
2019-04-10T15:44:11.989Z,12.10
2019-04-10T15:46:41.527Z,12.36
2019-04-10T15:49:11.487Z,12.17
2019-04-10T15:51:39.888Z,12.10
2019-04-10T15:54:09.647Z,12.17
2019-04-10T15:56:38.657Z,12.08
2019-04-10T15:59:26.184Z,12.26
2019-04-10T16:02:13.710Z,12.04
2019-04-10T16:07:36.214Z,12.08
2019-04-10T16:10:43.593Z,11.83
2019-04-10T16:19:14.630Z,11.58
2019-04-10T16:22:02.693Z,11.74
2019-04-10T16:24:31.207Z,11.74
2019-04-10T16:27:18.647Z,11.21
2019-04-10T16:29:47.053Z,11.19
2019-04-10T16:32:15.455Z,11.30
2019-04-10T16:35:03.234Z,11.18
2019-04-10T16:37:33.576Z,11.20
2019-04-10T16:40:22.742Z,11.01
2019-04-10T16:43:10.337Z,10.86
2019-04-10T16:45:57.994Z,10.88
2019-04-10T16:48:26.505Z,10.83
2019-04-10T16:50:56.534Z,10.87
2019-04-10T16:53:45.431Z,10.69
2019-04-10T16:56:14.321Z,10.49
2019-04-10T16:59:02.546Z,10.43
2019-04-10T17:01:33.005Z,10.52
2019-04-10T17:04:01.368Z,10.33
2019-04-10T17:06:30.349Z,10.21
2019-04-10T17:08:58.757Z,10.16
2019-04-10T17:11:27.197Z,10.15
2019-04-10T17:14:15.193Z,10.38
2019-04-10T17:16:43.987Z,10.44
2019-04-10T17:19:13.933Z,10.44
2019-04-10T17:21:44.608Z,10.21
2019-04-10T17:27:01.616Z,10.11
2019-04-10T17:29:51.539Z,10.11
2019-04-10T17:32:21.410Z,10.09
2019-04-10T17:38:18.527Z,9.91
2019-04-10T17:41:07.165Z,9.67
2019-04-10T17:43:55.651Z,9.50
2019-04-10T17:46:43.664Z,9.38
2019-04-10T17:49:13.382Z,9.34
2019-04-10T17:52:03.307Z,9.20
2019-04-10T17:54:31.485Z,9.05
2019-04-10T17:57:02.448Z,8.97
2019-04-10T17:59:32.341Z,9.00
2019-04-10T18:02:21.192Z,8.85
2019-04-10T18:04:50.375Z,8.93
2019-04-10T18:07:19.750Z,8.64
2019-04-10T18:09:48.582Z,8.56
2019-04-10T18:12:19.397Z,8.44
2019-04-10T18:17:35.883Z,8.24
2019-04-10T18:20:44.488Z,8.18
2019-04-10T18:23:32.004Z,8.15
2019-04-10T18:26:00.494Z,8.25
2019-04-10T18:29:27.409Z,8.09
2019-04-10T18:31:57.926Z,7.98
2019-04-10T18:34:27.030Z,8.00
2019-04-10T18:37:20.655Z,7.81
2019-04-10T18:39:46.453Z,7.67
2019-04-10T18:42:17.308Z,7.60
2019-04-10T18:47:36.436Z,7.48
2019-04-10T18:53:13.106Z,7.25
2019-04-10T18:56:01.374Z,7.10
2019-04-10T18:58:50.651Z,7.14
2019-04-10T19:01:39.054Z,7.17
2019-04-10T19:04:27.450Z,6.94
2019-04-10T19:07:15.370Z,6.93
2019-04-10T19:10:04.317Z,6.83
2019-04-10T19:12:33.471Z,6.77
2019-04-10T19:15:21.121Z,6.75
2019-04-10T19:17:49.529Z,6.50
2019-04-10T19:20:37.173Z,6.56
2019-04-10T19:25:41.115Z,6.40
2019-04-10T19:28:35.053Z,6.42
2019-04-10T19:31:20.008Z,6.35
2019-04-10T19:34:07.343Z,6.35
2019-04-10T19:36:36.219Z,6.42
2019-04-10T19:39:46.666Z,6.46
2019-04-10T19:42:35.649Z,6.35
2019-04-10T19:45:45.015Z,6.41
2019-04-10T19:50:49.894Z,6.20
2019-04-10T19:55:53.917Z,5.96
2019-04-10T19:58:38.521Z,6.02
2019-04-10T20:01:12.798Z,6.08
2019-04-10T20:03:41.194Z,6.15
2019-04-10T20:06:09.603Z,5.89
2019-04-10T20:11:12.886Z,5.85
2019-04-10T20:16:35.375Z,5.74
2019-04-10T20:21:56.983Z,5.45
2019-04-10T20:24:25.381Z,5.47
2019-04-10T20:29:28.857Z,5.42
2019-04-10T20:32:17.650Z,5.28
2019-04-10T20:37:34.633Z,5.33
2019-04-10T20:43:11.108Z,5.37
2019-04-10T20:45:58.606Z,5.29
2019-04-10T20:48:27.017Z,5.27
2019-04-10T20:51:14.542Z,5.14
2019-04-10T20:54:02.321Z,5.08
2019-04-10T20:56:30.770Z,5.08
2019-04-10T20:58:59.397Z,5.01
2019-04-10T21:01:28.819Z,5.02
2019-04-10T21:03:57.273Z,4.99
2019-04-10T21:06:25.678Z,4.89
2019-04-10T21:11:29.204Z,4.87
2019-04-10T21:14:19.088Z,4.72
2019-04-10T21:19:35.574Z,4.85
2019-04-10T21:24:52.068Z,4.70
2019-04-10T21:27:21.488Z,4.46
2019-04-10T21:30:28.506Z,4.43
2019-04-10T21:33:16.329Z,4.37
2019-04-10T21:35:45.605Z,4.30
2019-04-10T21:38:34.029Z,4.44
2019-04-10T21:41:22.058Z,4.20
2019-04-10T21:43:52.286Z,4.17
2019-04-10T21:46:22.204Z,4.05
2019-04-10T21:48:52.059Z,3.96
2019-04-10T21:51:20.456Z,3.99
2019-04-10T21:54:08.016Z,4.07
2019-04-10T21:56:37.257Z,3.93
2019-04-10T21:59:26.763Z,3.90
2019-04-10T22:01:56.955Z,3.87
2019-04-10T22:07:20.376Z,4.03
2019-04-10T22:10:09.890Z,3.95
2019-04-10T22:12:43.845Z,3.89
2019-04-10T22:20:22.227Z,3.88
2019-04-10T22:23:09.892Z,3.84
2019-04-10T22:25:57.491Z,3.86
2019-04-10T22:31:00.309Z,3.68
2019-04-10T22:33:48.938Z,3.72
2019-04-10T22:36:37.438Z,3.64
2019-04-10T22:39:45.738Z,3.74
2019-04-10T22:42:41.643Z,3.58
2019-04-10T22:45:45.015Z,3.54
2019-04-10T22:48:14.610Z,3.39
2019-04-10T22:51:03.458Z,3.35
2019-04-10T22:54:13.100Z,3.17
2019-04-10T23:00:10.001Z,3.06
2019-04-10T23:02:38.393Z,3.08
2019-04-10T23:08:01.532Z,2.79
2019-04-10T23:10:49.290Z,2.78
2019-04-10T23:13:36.935Z,2.69
2019-04-10T23:16:46.354Z,2.54
2019-04-10T23:19:34.624Z,2.42
2019-04-10T23:22:03.182Z,2.50
2019-04-10T23:24:33.826Z,2.48
2019-04-10T23:27:22.510Z,2.52
2019-04-10T23:32:25.265Z,2.69
2019-04-10T23:35:13.558Z,2.47
2019-04-10T23:38:02.152Z,2.47
2019-04-10T23:40:30.557Z,2.53
2019-04-10T23:43:20.034Z,2.63
2019-04-10T23:48:22.543Z,2.60
2019-04-10T23:50:52.413Z,2.54
2019-04-10T23:53:20.803Z,2.57
2019-04-10T23:55:50.332Z,2.70
2019-04-10T23:58:19.949Z,2.81
